createdAt,value
2023-04-01T00:04:44.709Z,2.60
2023-04-01T00:07:12.480Z,3.08
2023-04-01T00:09:45.550Z,2.88
2023-04-01T00:12:13.094Z,2.90
2023-04-01T00:14:41.464Z,3.65
2023-04-01T00:17:09.329Z,3.15
2023-04-01T00:19:37.035Z,3.20
2023-04-01T00:22:05.217Z,3.45
2023-04-01T00:24:33.618Z,3.35
2023-04-01T00:27:01.488Z,3.22
2023-04-01T00:29:30.628Z,4.60
2023-04-01T00:31:59.602Z,4.00
2023-04-01T00:34:27.340Z,4.50
2023-04-01T00:36:58.838Z,4.22
2023-04-01T00:39:31.044Z,4.68
2023-04-01T00:41:59.204Z,4.80
2023-04-01T00:44:35.595Z,4.57
2023-04-01T00:47:03.487Z,4.95
2023-04-01T00:49:45.997Z,5.18
2023-04-01T00:52:15.833Z,5.95
2023-04-01T00:54:45.331Z,5.20
2023-04-01T00:57:28.476Z,5.90
2023-04-01T00:59:56.750Z,5.97
2023-04-01T01:02:27.994Z,5.82
2023-04-01T01:04:56.111Z,6.95
2023-04-01T01:07:47.977Z,6.82
2023-04-01T01:10:19.148Z,6.80
2023-04-01T01:12:48.293Z,8.23
2023-04-01T01:15:32.972Z,8.50
2023-04-01T01:18:21.964Z,7.93
2023-04-01T01:21:09.227Z,8.35
2023-04-01T01:23:49.168Z,10.10
2023-04-01T01:26:32.273Z,9.73
2023-04-01T01:29:14.238Z,10.10
2023-04-01T01:32:01.609Z,10.43
2023-04-01T01:34:48.442Z,10.38
2023-04-01T01:37:18.139Z,11.25
2023-04-01T01:39:48.823Z,10.67
2023-04-01T01:42:19.321Z,11.27
2023-04-01T01:47:16.202Z,11.27
2023-04-01T01:49:44.777Z,11.77
2023-04-01T01:52:13.162Z,12.80
2023-04-01T01:54:57.287Z,12.73
2023-04-01T01:57:33.568Z,12.90
2023-04-01T02:00:15.055Z,13.18
2023-04-01T02:02:51.891Z,13.68
2023-04-01T02:05:31.148Z,12.85
2023-04-01T02:08:11.693Z,13.18
2023-04-01T02:10:41.613Z,13.82
2023-04-01T02:13:19.529Z,13.27
2023-04-01T02:15:50.499Z,13.07
2023-04-01T02:18:20.237Z,13.30
2023-04-01T02:20:48.088Z,12.57
2023-04-01T02:23:16.137Z,11.35
2023-04-01T02:25:45.174Z,10.77
2023-04-01T02:28:14.812Z,10.90
2023-04-01T02:30:44.941Z,11.38
2023-04-01T02:33:13.675Z,13.23
2023-04-01T02:35:41.683Z,13.23
2023-04-01T02:38:09.552Z,13.45
2023-04-01T02:40:48.289Z,11.13
2023-04-01T02:43:16.285Z,9.90
2023-04-01T02:45:44.799Z,10.27
2023-04-01T02:48:13.860Z,11.82
2023-04-01T02:50:42.156Z,10.35
2023-04-01T02:53:10.054Z,8.95
2023-04-01T02:55:43.061Z,7.32
2023-04-01T02:58:12.952Z,6.25
2023-04-01T03:00:40.548Z,6.78
2023-04-01T03:03:09.849Z,5.90
2023-04-01T03:05:37.868Z,5.63
2023-04-01T03:08:08.034Z,5.60
2023-04-01T03:10:36.134Z,5.85
2023-04-01T03:13:06.668Z,6.13
2023-04-01T03:15:34.804Z,6.50
2023-04-01T03:18:02.419Z,5.85
2023-04-01T03:20:30.466Z,6.00
2023-04-01T03:23:01.085Z,6.25
2023-04-01T03:25:29.771Z,6.10
2023-04-01T03:27:57.576Z,6.47
2023-04-01T03:30:31.061Z,6.10
2023-04-01T03:33:01.025Z,6.10
2023-04-01T03:35:31.542Z,6.20
2023-04-01T03:40:27.726Z,6.72
2023-04-01T03:42:57.311Z,6.20
2023-04-01T03:45:25.564Z,6.10
2023-04-01T03:47:56.123Z,6.25
2023-04-01T03:50:24.886Z,6.03
2023-04-01T03:52:53.312Z,5.85
2023-04-01T03:55:24.253Z,5.57
2023-04-01T03:57:52.044Z,5.50
2023-04-01T04:00:21.288Z,5.68
2023-04-01T04:02:59.113Z,5.65
2023-04-01T04:05:32.636Z,5.38
2023-04-01T04:08:01.436Z,6.05
2023-04-01T04:10:34.123Z,5.97
2023-04-01T04:13:02.976Z,5.95
2023-04-01T04:15:32.501Z,6.05
2023-04-01T04:18:01.273Z,6.88
2023-04-01T04:20:29.673Z,7.22
2023-04-01T04:22:57.152Z,8.00
2023-04-01T04:25:29.624Z,8.30
2023-04-01T04:27:57.742Z,8.45
2023-04-01T04:30:26.029Z,8.40
2023-04-01T04:32:56.774Z,8.25
2023-04-01T04:35:26.409Z,8.98
2023-04-01T04:37:57.012Z,9.60
2023-04-01T04:40:28.258Z,9.70
2023-04-01T04:42:56.258Z,10.18
2023-04-01T04:45:24.938Z,10.68
2023-04-01T04:47:57.697Z,10.50
2023-04-01T04:50:26.699Z,11.00
2023-04-01T04:52:55.928Z,10.25
2023-04-01T04:55:26.047Z,11.20
2023-04-01T04:58:13.425Z,10.93
2023-04-01T05:00:43.767Z,10.63
2023-04-01T05:03:20.893Z,11.30
2023-04-01T05:05:55.745Z,11.63
2023-04-01T05:08:28.632Z,11.35
2023-04-01T05:10:57.292Z,12.23
2023-04-01T05:13:28.363Z,11.95
2023-04-01T05:15:56.294Z,10.73
2023-04-01T05:18:24.493Z,11.30
2023-04-01T05:20:54.400Z,11.82
2023-04-01T05:23:26.332Z,12.52
2023-04-01T05:25:55.057Z,12.50
2023-04-01T05:28:23.177Z,11.88
2023-04-01T05:30:51.254Z,13.02
2023-04-01T05:33:27.116Z,13.55
2023-04-01T05:35:58.991Z,13.57
2023-04-01T05:38:26.485Z,14.98
2023-04-01T05:41:01.543Z,16.58
2023-04-01T05:43:32.012Z,18.98
2023-04-01T05:46:08.435Z,21.13
2023-04-01T05:48:52.006Z,22.20
2023-04-01T05:51:27.843Z,23.63
2023-04-01T05:53:55.774Z,24.35
2023-04-01T05:56:26.099Z,24.48
2023-04-01T05:58:56.385Z,26.42
2023-04-01T06:03:54.107Z,24.67
2023-04-01T06:06:26.537Z,24.35
2023-04-01T06:08:58.439Z,23.27
2023-04-01T06:11:26.652Z,23.10
2023-04-01T06:14:10.094Z,23.63
2023-04-01T06:16:43.220Z,22.60
2023-04-01T06:19:20.239Z,21.17
2023-04-01T06:22:04.823Z,22.23
2023-04-01T06:24:33.627Z,20.75
2023-04-01T06:27:01.411Z,20.02
2023-04-01T06:29:46.282Z,20.10
2023-04-01T06:32:33.696Z,21.27
2023-04-01T06:35:11.262Z,21.65
2023-04-01T06:37:49.471Z,22.10
2023-04-01T06:40:20.421Z,24.20
2023-04-01T06:43:02.492Z,24.52
2023-04-01T06:45:56.697Z,23.52
2023-04-01T06:48:43.254Z,24.85
2023-04-01T06:51:24.398Z,23.45
2023-04-01T06:54:14.316Z,24.38
2023-04-01T06:57:04.258Z,24.00
2023-04-01T06:59:34.670Z,24.85
2023-04-01T07:02:12.322Z,23.30
2023-04-01T07:04:42.404Z,22.83
2023-04-01T07:07:16.872Z,23.75
2023-04-01T07:10:01.700Z,23.02
2023-04-01T07:12:35.819Z,23.17
2023-04-01T07:15:40.857Z,21.88
2023-04-01T07:18:13.189Z,21.85
2023-04-01T07:20:41.938Z,21.95
2023-04-01T07:23:23.903Z,22.48
2023-04-01T07:26:21.965Z,22.27
2023-04-01T07:29:12.243Z,22.38
2023-04-01T07:32:03.663Z,21.95
2023-04-01T07:34:54.678Z,22.33
2023-04-01T07:37:34.931Z,21.42
2023-04-01T07:40:08.778Z,21.00
2023-04-01T07:42:46.608Z,21.38
2023-04-01T07:45:20.677Z,20.50
2023-04-01T07:48:07.074Z,19.60
2023-04-01T07:50:36.814Z,18.10
2023-04-01T07:53:19.342Z,17.30
2023-04-01T07:55:49.757Z,17.30
2023-04-01T07:58:45.770Z,16.50
2023-04-01T08:01:32.144Z,16.65
2023-04-01T08:04:25.026Z,17.20
2023-04-01T08:06:58.184Z,15.88
2023-04-01T08:09:41.997Z,17.38
2023-04-01T08:12:34.511Z,16.15
2023-04-01T08:15:11.193Z,14.85
2023-04-01T08:17:59.128Z,14.85
2023-04-01T08:20:29.862Z,15.68
2023-04-01T08:23:05.781Z,15.15
2023-04-01T08:25:42.018Z,16.73
2023-04-01T08:28:16.879Z,14.15
2023-04-01T08:31:04.891Z,14.73
2023-04-01T08:33:34.416Z,13.45
2023-04-01T08:36:06.037Z,14.05
2023-04-01T08:38:34.182Z,12.95
2023-04-01T08:41:03.248Z,12.73
2023-04-01T08:44:00.041Z,12.45
2023-04-01T08:46:29.301Z,13.25
2023-04-01T08:49:15.615Z,13.05
2023-04-01T08:51:46.811Z,12.18
2023-04-01T08:54:20.725Z,12.52
2023-04-01T08:56:48.834Z,13.32
2023-04-01T08:59:19.103Z,14.48
2023-04-01T09:01:49.825Z,13.80
2023-04-01T09:04:46.717Z,13.63
2023-04-01T09:07:14.706Z,13.50
2023-04-01T09:09:48.570Z,13.18
2023-04-01T09:12:27.313Z,13.40
2023-04-01T09:14:59.025Z,13.45
2023-04-01T09:17:36.693Z,13.27
2023-04-01T09:20:09.441Z,13.05
2023-04-01T09:22:38.537Z,13.93
2023-04-01T09:25:25.025Z,14.73
2023-04-01T09:28:13.041Z,13.38
2023-04-01T09:30:50.912Z,12.73
2023-04-01T09:33:39.078Z,12.55
2023-04-01T09:36:14.958Z,13.60
2023-04-01T09:38:56.099Z,14.20
2023-04-01T09:41:34.277Z,13.95
2023-04-01T09:44:29.225Z,14.65
2023-04-01T09:47:12.395Z,17.05
2023-04-01T09:49:58.277Z,14.68
2023-04-01T09:52:30.034Z,15.75
2023-04-01T09:55:06.927Z,15.77
2023-04-01T09:57:42.191Z,15.68
2023-04-01T10:00:55.395Z,15.45
2023-04-01T10:03:29.230Z,15.30
2023-04-01T10:06:17.173Z,15.25
2023-04-01T10:09:08.365Z,15.82
2023-04-01T10:12:03.624Z,14.68
2023-04-01T10:14:33.452Z,14.68
2023-04-01T10:17:02.582Z,15.25
2023-04-01T10:19:36.397Z,15.07
2023-04-01T10:22:04.264Z,15.85
2023-04-01T10:24:45.856Z,16.10
2023-04-01T10:27:13.706Z,15.85
2023-04-01T10:30:02.202Z,16.05
2023-04-01T10:32:32.945Z,17.23
2023-04-01T10:35:05.547Z,16.50
2023-04-01T10:37:39.250Z,16.55
2023-04-01T10:40:20.650Z,17.08
2023-04-01T10:43:17.675Z,17.92
2023-04-01T10:46:17.270Z,17.10
2023-04-01T10:48:45.616Z,17.80
2023-04-01T10:51:19.770Z,18.10
2023-04-01T10:54:06.003Z,16.30
2023-04-01T10:56:36.522Z,16.77
2023-04-01T10:59:25.441Z,16.88
2023-04-01T11:02:36.347Z,16.65
2023-04-01T11:05:45.298Z,17.30
2023-04-01T11:08:27.082Z,17.58
2023-04-01T11:11:01.034Z,16.27
2023-04-01T11:13:35.532Z,17.85
2023-04-01T11:16:06.156Z,15.25
2023-04-01T11:18:53.999Z,14.50
2023-04-01T11:21:39.663Z,12.63
2023-04-01T11:24:15.649Z,13.50
2023-04-01T11:27:13.114Z,12.98
2023-04-01T11:29:59.128Z,12.93
2023-04-01T11:32:42.527Z,13.07
2023-04-01T11:35:29.941Z,13.32
2023-04-01T11:38:16.584Z,12.48
2023-04-01T11:41:28.446Z,12.48
2023-04-01T11:44:24.263Z,13.50
2023-04-01T11:47:41.928Z,15.02
2023-04-01T11:50:28.708Z,14.57
2023-04-01T11:53:02.677Z,15.57
2023-04-01T11:55:37.550Z,15.88
2023-04-01T11:58:11.468Z,15.63
2023-04-01T12:00:45.717Z,15.50
2023-04-01T12:03:28.530Z,15.20
2023-04-01T12:06:15.716Z,15.07
2023-04-01T12:08:49.831Z,15.63
2023-04-01T12:11:46.966Z,14.13
2023-04-01T12:14:29.637Z,12.48
2023-04-01T12:17:19.610Z,12.85
2023-04-01T12:19:57.142Z,11.07
2023-04-01T12:22:38.496Z,11.48
2023-04-01T12:25:09.708Z,11.07
2023-04-01T12:27:56.140Z,11.95
2023-04-01T12:30:28.870Z,12.02
2023-04-01T12:33:02.621Z,11.50
2023-04-01T12:35:34.008Z,11.70
2023-04-01T12:38:19.791Z,12.38
2023-04-01T12:41:01.911Z,12.20
2023-04-01T12:43:48.265Z,11.32
2023-04-01T12:46:23.518Z,12.15
2023-04-01T12:49:02.057Z,11.20
2023-04-01T12:51:38.859Z,10.98
2023-04-01T12:54:29.546Z,10.25
2023-04-01T12:59:46.004Z,9.20
2023-04-01T13:02:29.991Z,9.45
2023-04-01T13:05:14.869Z,11.13
2023-04-01T13:07:49.749Z,9.70
2023-04-01T13:10:36.451Z,9.35
2023-04-01T13:13:29.589Z,7.80
2023-04-01T13:16:16.613Z,6.95
2023-04-01T13:18:50.189Z,6.93
2023-04-01T13:21:30.209Z,6.88
2023-04-01T13:24:16.512Z,6.22
2023-04-01T13:27:04.014Z,6.65
2023-04-01T13:29:38.360Z,7.50
2023-04-01T13:32:20.089Z,7.05
2023-04-01T13:34:53.893Z,7.97
2023-04-01T13:37:25.818Z,7.93
2023-04-01T13:40:05.658Z,8.10
2023-04-01T13:42:43.623Z,8.18
2023-04-01T13:45:16.770Z,8.52
2023-04-01T13:47:56.612Z,8.05
2023-04-01T13:50:35.059Z,8.77
2023-04-01T13:53:17.524Z,10.18
2023-04-01T13:55:56.798Z,9.07
2023-04-01T13:58:26.511Z,9.00
2023-04-01T14:01:05.731Z,9.77
2023-04-01T14:03:45.444Z,10.57
2023-04-01T14:06:27.662Z,10.07
2023-04-01T14:08:56.335Z,9.52
2023-04-01T14:11:27.105Z,8.70
2023-04-01T14:14:16.074Z,7.07
2023-04-01T14:16:50.032Z,5.07
2023-04-01T14:19:30.206Z,3.00
2023-04-01T14:22:01.652Z,2.78
2023-04-01T14:24:48.655Z,2.42
2023-04-01T14:27:16.310Z,1.85
2023-04-01T14:30:04.130Z,2.00
2023-04-01T14:32:34.537Z,3.13
2023-04-01T14:37:33.786Z,3.47
2023-04-01T14:40:16.743Z,4.30
2023-04-01T14:43:04.184Z,5.90
2023-04-01T14:45:53.745Z,6.82
2023-04-01T14:48:39.713Z,7.45
2023-04-01T14:51:13.458Z,10.07
2023-04-01T14:53:46.992Z,10.25
2023-04-01T14:56:15.034Z,10.07
2023-04-01T14:58:51.884Z,10.13
2023-04-01T15:01:20.278Z,7.75
2023-04-01T15:03:57.019Z,7.65
2023-04-01T15:06:37.480Z,6.80
2023-04-01T15:09:05.130Z,6.05
2023-04-01T15:11:42.178Z,6.13
2023-04-01T15:14:23.604Z,6.40
2023-04-01T15:17:11.637Z,5.95
2023-04-01T15:19:50.060Z,5.80
2023-04-01T15:22:50.340Z,5.95
2023-04-01T15:25:23.996Z,6.18
2023-04-01T15:27:53.893Z,4.82
2023-04-01T15:30:34.918Z,4.25
2023-04-01T15:33:15.845Z,4.35
2023-04-01T15:35:47.462Z,4.15
2023-04-01T15:38:31.436Z,4.43
2023-04-01T15:41:07.812Z,4.75
2023-04-01T15:43:38.190Z,4.20
2023-04-01T15:46:25.111Z,4.40
2023-04-01T15:48:53.541Z,4.40
2023-04-01T15:51:41.073Z,4.40
2023-04-01T15:54:13.669Z,4.20
2023-04-01T15:57:00.891Z,4.45
2023-04-01T15:59:54.031Z,4.50
2023-04-01T16:02:38.466Z,4.53
2023-04-01T16:05:28.249Z,4.32
2023-04-01T16:08:15.349Z,4.20
2023-04-01T16:10:56.522Z,4.10
2023-04-01T16:13:35.843Z,4.38
2023-04-01T16:16:13.627Z,4.40
2023-04-01T16:18:54.795Z,4.90
2023-04-01T16:21:41.160Z,4.40
2023-04-01T16:24:12.328Z,4.10
2023-04-01T16:26:45.479Z,3.72
2023-04-01T16:29:28.852Z,3.50
2023-04-01T16:32:15.227Z,3.13
2023-04-01T16:34:45.574Z,3.17
2023-04-01T16:37:16.927Z,2.65
2023-04-01T16:40:14.983Z,2.40
2023-04-01T16:42:46.185Z,2.58
2023-04-01T16:45:21.209Z,3.10
2023-04-01T16:47:51.629Z,3.38
2023-04-01T16:52:50.235Z,3.70
2023-04-01T16:55:24.595Z,4.40
2023-04-01T16:57:58.006Z,4.47
2023-04-01T17:00:26.383Z,4.35
2023-04-01T17:03:09.538Z,4.18
2023-04-01T17:05:37.896Z,4.55
2023-04-01T17:08:28.503Z,4.70
2023-04-01T17:13:38.573Z,4.75
2023-04-01T17:16:28.918Z,4.78
2023-04-01T17:19:15.645Z,5.45
2023-04-01T17:21:45.307Z,5.45
2023-04-01T17:24:38.017Z,5.30
2023-04-01T17:27:09.443Z,4.82
2023-04-01T17:29:56.181Z,4.80
2023-04-01T17:32:27.743Z,5.20
2023-04-01T17:35:02.269Z,5.13
2023-04-01T17:37:31.133Z,5.63
2023-04-01T17:40:26.918Z,4.95
2023-04-01T17:42:57.780Z,4.80
2023-04-01T17:45:34.366Z,5.00
2023-04-01T17:48:14.117Z,5.35
2023-04-01T17:50:55.691Z,5.30
2023-04-01T17:53:39.000Z,5.10
2023-04-01T17:56:12.753Z,5.50
2023-04-01T17:58:48.819Z,6.03
2023-04-01T18:01:35.408Z,5.78
2023-04-01T18:04:12.900Z,5.82
2023-04-01T18:06:41.147Z,6.25
2023-04-01T18:09:11.705Z,6.35
2023-04-01T18:11:55.361Z,6.55
2023-04-01T18:14:32.364Z,6.50
2023-04-01T18:17:03.183Z,6.93
2023-04-01T18:19:49.686Z,7.00
2023-04-01T18:22:18.759Z,6.72
2023-04-01T18:25:05.660Z,6.93
2023-04-01T18:27:41.799Z,6.53
2023-04-01T18:30:16.039Z,7.45
2023-04-01T18:33:14.329Z,7.78
2023-04-01T18:35:55.063Z,8.15
2023-04-01T18:38:30.786Z,8.93
2023-04-01T18:41:17.299Z,9.27
2023-04-01T18:43:48.242Z,8.80
2023-04-01T18:46:24.766Z,9.65
2023-04-01T18:49:04.976Z,9.38
2023-04-01T18:51:35.865Z,9.63
2023-04-01T18:54:07.576Z,10.02
2023-04-01T18:56:46.423Z,9.30
2023-04-01T18:59:34.632Z,9.15
2023-04-01T19:02:16.019Z,9.90
2023-04-01T19:04:43.740Z,8.75
2023-04-01T19:07:41.292Z,8.68
2023-04-01T19:10:33.293Z,8.50
2023-04-01T19:13:13.398Z,7.82
2023-04-01T19:15:41.554Z,8.77
2023-04-01T19:18:25.328Z,8.25
2023-04-01T19:20:59.390Z,8.70
2023-04-01T19:23:49.918Z,10.13
2023-04-01T19:26:25.112Z,9.98
2023-04-01T19:29:08.486Z,10.60
2023-04-01T19:31:36.817Z,10.27
2023-04-01T19:34:17.093Z,10.77
2023-04-01T19:36:44.744Z,11.20
2023-04-01T19:39:26.150Z,11.18
2023-04-01T19:42:08.035Z,11.68
2023-04-01T19:44:47.247Z,10.88
2023-04-01T19:47:23.826Z,10.50
2023-04-01T19:50:05.623Z,10.43
2023-04-01T19:52:38.526Z,10.40
2023-04-01T19:55:26.164Z,10.30
2023-04-01T19:57:59.942Z,10.38
2023-04-01T20:00:35.813Z,10.27
2023-04-01T20:03:03.709Z,10.10
2023-04-01T20:05:46.467Z,10.35
2023-04-01T20:08:20.887Z,9.00
2023-04-01T20:10:48.945Z,8.27
2023-04-01T20:13:33.161Z,7.63
2023-04-01T20:16:03.214Z,7.97
2023-04-01T20:18:50.583Z,7.78
2023-04-01T20:21:26.544Z,7.57
2023-04-01T20:24:03.119Z,7.20
2023-04-01T20:26:40.788Z,8.10
2023-04-01T20:29:08.730Z,9.35
2023-04-01T20:31:43.375Z,9.95
2023-04-01T20:34:11.984Z,10.63
2023-04-01T20:36:48.619Z,10.00
2023-04-01T20:39:34.991Z,11.48
2023-04-01T20:42:18.083Z,12.05
2023-04-01T20:44:54.714Z,11.60
2023-04-01T20:47:32.536Z,12.25
2023-04-01T20:50:20.072Z,12.20
2023-04-01T20:52:57.271Z,12.95
2023-04-01T20:55:36.609Z,11.90
2023-04-01T20:58:07.578Z,11.48
2023-04-01T21:01:00.503Z,12.10
2023-04-01T21:03:50.028Z,12.05
2023-04-01T21:06:25.175Z,11.90
2023-04-01T21:09:02.435Z,11.70
2023-04-01T21:11:54.715Z,11.57
2023-04-01T21:14:49.898Z,12.57
2023-04-01T21:17:36.987Z,11.20
2023-04-01T21:20:27.968Z,12.70
2023-04-01T21:23:14.537Z,11.85
2023-04-01T21:26:02.737Z,12.43
2023-04-01T21:28:30.585Z,12.35
2023-04-01T21:31:15.086Z,12.68
2023-04-01T21:33:47.277Z,12.55
2023-04-01T21:36:27.256Z,14.52
2023-04-01T21:38:58.584Z,14.05
2023-04-01T21:41:37.160Z,15.98
2023-04-01T21:44:04.719Z,15.60
2023-04-01T21:46:58.132Z,14.77
2023-04-01T21:49:47.196Z,15.45
2023-04-01T21:52:27.680Z,15.02
2023-04-01T21:57:43.811Z,14.15
2023-04-01T22:00:17.541Z,14.80
2023-04-01T22:02:55.744Z,14.77
2023-04-01T22:08:00.804Z,14.18
2023-04-01T22:10:28.452Z,13.63
2023-04-01T22:13:18.060Z,13.25
2023-04-01T22:15:46.242Z,13.63
2023-04-01T22:18:35.934Z,13.50
2023-04-01T22:21:17.377Z,12.88
2023-04-01T22:23:49.859Z,13.00
2023-04-01T22:26:24.462Z,13.15
2023-04-01T22:29:12.184Z,13.20
2023-04-01T22:31:47.410Z,12.43
2023-04-01T22:34:26.880Z,12.27
2023-04-01T22:37:07.423Z,11.88
2023-04-01T22:39:57.062Z,11.90
2023-04-01T22:42:31.669Z,10.47
2023-04-01T22:45:02.473Z,10.65
2023-04-01T22:47:53.535Z,10.30
2023-04-01T22:50:26.077Z,10.32
2023-04-01T22:53:00.894Z,10.85
2023-04-01T22:55:33.423Z,9.80
2023-04-01T22:58:11.012Z,10.18
2023-04-01T23:00:42.526Z,10.50
2023-04-01T23:03:10.202Z,9.10
2023-04-01T23:05:41.637Z,9.30
2023-04-01T23:08:28.059Z,8.90
2023-04-01T23:11:04.426Z,10.18
2023-04-01T23:13:57.976Z,9.35
2023-04-01T23:16:31.166Z,9.38
2023-04-01T23:18:58.751Z,9.80
2023-04-01T23:21:48.529Z,9.35
2023-04-01T23:24:23.262Z,10.00
2023-04-01T23:26:57.094Z,10.50
2023-04-01T23:29:27.012Z,10.55
2023-04-01T23:32:02.813Z,11.60
2023-04-01T23:34:34.894Z,11.13
2023-04-01T23:37:17.298Z,11.20
2023-04-01T23:39:46.794Z,10.63
2023-04-01T23:42:21.007Z,10.45
2023-04-01T23:44:55.649Z,10.30
2023-04-01T23:47:26.685Z,10.90
2023-04-01T23:49:58.701Z,10.63
2023-04-01T23:52:29.567Z,10.90
2023-04-01T23:55:01.464Z,10.45
2023-04-01T23:57:33.958Z,10.73
